WXcenter Banner NOAA Logo links to NOAA website FRD Logo links to FRD website

NOAA INL CURRENT OBSERVATIONS


NOAA AIR RESOURCES LABORATORY
MESONET WEATHER CONDITIONS FOR 18-Aug-17

Towers located at INL Facilities:

                      Time  Dir/Spd  Temp  WC  RH  Pres.
Location              MDT   deg/mph   (F)  (F)  %  In.Hg

ATR                  06:25  129/  1    44  44  46  25.22
CFA                  06:25  340/  3    43  41  49  25.17
CIT                  06:25  337/  1    45  45  47  25.17
INTEC                06:25  253/  4    43  40  48  25.21
MFC                  06:25  197/  3    45  44  51  25.00
NRF                  06:25  187/  3    48  48  42  25.26
RWMC                 06:25  234/  4    43  40  47  25.11
SMC                  06:25    9/  8    50  --  50  25.32

Other towers located inside the INL:

                      Time  Dir/Spd  Temp  WC  RH  Pres.
Location              MDT   deg/mph   (F)  (F)  %  In.Hg

Base of Howe Peak    06:25  209/  3    44  44  54  25.22
Deadman Canyon       06:25  283/  0    49  49  49  25.03
Lost River           06:25   16/  2    43  43  49  25.13
Rover                06:25  344/  5    47  45  67  25.12
Sand Dunes           06:25   14/ 11    53  --  55  25.28

Towers located outside the INL:

                      Time  Dir/Spd  Temp  WC  RH  Pres.
Location              MDT   deg/mph   (F)  (F)  %  In.Hg

Aberdeen             06:25  272/  3    45  44  75  25.68
Arco                 06:25  322/  5    47  45  71
Atomic City          06:25  294/  5    44  42  50  25.10
Blackfoot            06:25  206/  1    48  48  77  25.59
Blue Dome            06:25  329/ 15    56  --  39
Cox's Well           06:25  256/  4    54  --  42
Craters of the Moon  06:25   20/  6    59  --  35  24.28
Dubois               06:25   54/ 13    53  --  50  24.73
Fort Hall            06:25   35/  3    47  47  55  25.61
Hamer                06:25   36/  8    46  42  64
Howe                 06:25  276/  4    43  41  77
Idaho Falls (REC)    06:25  322/  4    52  --  74  25.39
Kettle Butte         06:25  199/  7    55  --  56  24.94
Minidoka             06:25  103/  7    50  47  67  25.77
Monteview            06:25  341/  7    46  42  79  25.31
Richfield            06:25   17/ 11    48  43  68  25.71
Roberts              06:25   88/  6    46  43  77
Sugar City           06:25   55/  5    46  44  75  25.22
Taber                06:25    8/  2    42  42  76
Terreton             06:25   87/  3    46  46  76  25.31

Updated every 5 minutes. Unreviewed data; maintenance may cause some errors.
Forecast: 526-8884   Info: 526-2744
            

This page automatically refreshes every 5 minutes.


Modified: March 1, 2011
Dept. of Commerce |  NOAA |  NOAA Research |  ARL |  FRD Privacy |  Disclaimer |  Information Quality |  webmaster